Airfield :
LOGIN :

Register | Disclaimer

   EN    FR    IT 

 










Legend :    VFR   Marginal VFR   IFR   Intensive IFR   Very Intensive IFR
Visi :
Ceiling :
>= 8 km
>= 3000ft
5 to 8 km
1000 to 3000 ft
1500m to 5 km
500 to 1000 ft
800 to 1500m
200 to 500 ft
< 800m
< 200 ft
Symbols :   Thunderstorms  Fog  Heavy snow  Heavy precipitations  Wind > 20 kt
SIGMETs :     Misc.  Thunderstorms  Icing  Turbulence  Mountain Waves  Volcanic Ashes






- Airport Elevation : 83 ft
- IATA code : LHR


EGLL - London Heathrow

CURRENT METAR :
  • 271720Z AUTO 30009KT 9999 NCD 07/M03 Q1008 NOSIG

EXPIRED METARs :
  • 271650Z AUTO 31011KT 9999 NCD 07/M03 Q1008 NOSIG
  • 271620Z AUTO 31011KT 9999 NCD 08/M03 Q1007 NOSIG
  • 271550Z AUTO 31013KT 9999 NCD 08/M02 Q1006 NOSIG
  • 271520Z AUTO 31014G24KT 9999 SCT044 08/M02 Q1005 NOSIG
  • 271450Z AUTO 30016KT 9999 SCT043 07/M01 Q1005

TAF TAF EGLL
Valid from the 27 at 18:00 until the 29 at 00:00 UTC


271653Z 2718/2824 27012KT 9999 FEW030
BECMG 2800/2803 20006KT
BECMG 2806/2809 16015G25KT BKN010
TEMPO 2809/2817 4000 RA BKN006
BECMG 2817/2820 22018G30KT BKN020
PROB40
TEMPO 2817/2821 BKN014



MET'MAP, your aeronautical weather chart ! - Copyright ORBIFLY December 2007 - Disclaimer

ORBIFLY MET'MAP TEAM :

Programming & Development : Alexandra Zaïnal
Concept & original design : Baudouin d'Aumeries
Assistance for programming : Marc-Olivier Méhu
Technical & hardware support : Manuel Goepfert

Contact : metmap@orbifly.com




SOURCES & CREDITS :

   NOAA